createdAt,value
2022-10-07T00:00:04.241Z,8.10
2022-10-07T00:03:12.701Z,8.03
2022-10-07T00:06:05.053Z,7.80
2022-10-07T00:08:54.506Z,7.90
2022-10-07T00:11:43.671Z,8.23
2022-10-07T00:14:32.222Z,8.10
2022-10-07T00:17:21.590Z,7.93
2022-10-07T00:20:11.574Z,8.67
2022-10-07T00:23:00.123Z,8.20
2022-10-07T00:25:48.167Z,7.87
2022-10-07T00:28:38.284Z,8.30
2022-10-07T00:31:29.668Z,8.17
2022-10-07T00:34:18.214Z,8.43
2022-10-07T00:37:07.588Z,8.33
2022-10-07T00:39:55.956Z,8.00
2022-10-07T00:42:44.070Z,7.43
2022-10-07T00:45:33.256Z,7.47
2022-10-07T00:48:26.875Z,7.43
2022-10-07T00:51:16.687Z,7.23
2022-10-07T00:54:09.276Z,7.90
2022-10-07T00:56:59.310Z,7.43
2022-10-07T00:59:49.707Z,7.57
2022-10-07T01:02:39.760Z,8.23
2022-10-07T01:05:29.263Z,8.57
2022-10-07T01:08:18.631Z,7.30
2022-10-07T01:11:18.447Z,7.60
2022-10-07T01:14:18.052Z,7.67
2022-10-07T01:17:10.842Z,7.50
2022-10-07T01:20:28.944Z,7.37
2022-10-07T01:23:37.899Z,8.00
2022-10-07T01:26:44.956Z,7.27
2022-10-07T01:29:38.381Z,7.83
2022-10-07T01:32:32.038Z,6.77
2022-10-07T01:35:26.741Z,7.33
2022-10-07T01:38:19.278Z,7.37
2022-10-07T01:41:14.646Z,7.55
2022-10-07T01:44:05.152Z,7.70
2022-10-07T01:46:54.094Z,7.67
2022-10-07T01:49:43.670Z,7.80
2022-10-07T01:52:59.502Z,6.97
2022-10-07T01:56:01.317Z,7.77
2022-10-07T01:59:09.481Z,7.40
2022-10-07T02:02:05.795Z,8.00
2022-10-07T02:05:01.821Z,6.90
2022-10-07T02:08:04.579Z,7.77
2022-10-07T02:11:09.194Z,7.53
2022-10-07T02:14:08.572Z,7.23
2022-10-07T02:17:03.842Z,6.93
2022-10-07T02:19:56.383Z,6.63
2022-10-07T02:22:47.765Z,6.90
2022-10-07T02:25:41.143Z,7.30
2022-10-07T02:28:32.241Z,6.73
2022-10-07T02:31:25.112Z,7.03
2022-10-07T02:37:14.751Z,6.93
2022-10-07T02:40:09.696Z,7.27
2022-10-07T02:43:07.998Z,6.37
2022-10-07T02:46:03.110Z,6.63
2022-10-07T02:48:58.309Z,6.93
2022-10-07T02:51:52.620Z,6.53
2022-10-07T02:54:45.893Z,7.10
2022-10-07T02:57:39.099Z,6.30
2022-10-07T03:00:31.349Z,5.90
2022-10-07T03:03:20.460Z,6.58
2022-10-07T03:06:18.142Z,6.03
2022-10-07T03:09:07.915Z,6.27
2022-10-07T03:11:56.463Z,5.97
2022-10-07T03:14:45.953Z,6.47
2022-10-07T03:17:34.792Z,6.40
2022-10-07T03:20:24.161Z,6.53
2022-10-07T03:23:13.532Z,6.17
2022-10-07T03:26:02.492Z,5.67
2022-10-07T03:28:52.265Z,6.57
2022-10-07T03:31:42.624Z,6.27
2022-10-07T03:34:31.824Z,6.77
2022-10-07T03:37:20.786Z,5.83
2022-10-07T03:40:15.422Z,6.27
2022-10-07T03:43:04.824Z,6.20
2022-10-07T03:45:55.601Z,6.37
2022-10-07T03:48:44.202Z,6.17
2022-10-07T03:51:33.782Z,6.40
2022-10-07T03:54:23.757Z,5.87
2022-10-07T03:57:27.017Z,6.50
2022-10-07T04:00:17.386Z,6.40
2022-10-07T04:03:10.963Z,6.13
2022-10-07T04:06:00.216Z,5.63
2022-10-07T04:08:54.163Z,5.30
2022-10-07T04:11:44.547Z,6.30
2022-10-07T04:14:33.306Z,6.17
2022-10-07T04:17:23.810Z,6.17
2022-10-07T04:20:14.908Z,6.30
2022-10-07T04:23:04.072Z,6.17
2022-10-07T04:25:55.282Z,5.97
2022-10-07T04:28:44.323Z,6.10
2022-10-07T04:31:37.392Z,5.90
2022-10-07T04:34:27.077Z,6.27
2022-10-07T04:37:15.829Z,7.07
2022-10-07T04:40:06.201Z,6.80
2022-10-07T04:43:13.421Z,6.63
2022-10-07T04:46:05.361Z,7.80
2022-10-07T04:48:55.017Z,6.47
2022-10-07T04:51:47.458Z,6.90
2022-10-07T04:54:38.874Z,6.50
2022-10-07T04:57:27.633Z,6.63
2022-10-07T05:00:18.839Z,6.77
2022-10-07T05:03:21.197Z,6.80
2022-10-07T05:06:11.097Z,6.43
2022-10-07T05:09:01.082Z,5.33
2022-10-07T05:11:55.318Z,6.43
2022-10-07T05:14:44.939Z,6.40
2022-10-07T05:17:34.307Z,7.07
2022-10-07T05:20:23.272Z,6.50
2022-10-07T05:23:14.068Z,6.17
2022-10-07T05:26:07.241Z,5.77
2022-10-07T05:28:57.314Z,5.10
2022-10-07T05:31:50.686Z,6.30
2022-10-07T05:34:42.195Z,5.90
2022-10-07T05:37:31.973Z,6.00
2022-10-07T05:40:20.933Z,5.73
2022-10-07T05:43:10.919Z,4.70
2022-10-07T05:46:01.633Z,4.80
2022-10-07T05:48:52.520Z,5.20
2022-10-07T05:51:42.097Z,4.80
2022-10-07T05:54:32.288Z,5.90
2022-10-07T05:57:22.480Z,5.47
2022-10-07T06:00:14.654Z,5.37
2022-10-07T06:03:04.400Z,5.60
2022-10-07T06:05:54.456Z,5.40
2022-10-07T06:08:44.658Z,5.10
2022-10-07T06:11:53.076Z,5.30
2022-10-07T06:14:42.241Z,4.50
2022-10-07T06:17:31.640Z,4.93
2022-10-07T06:20:21.795Z,5.30
2022-10-07T06:23:10.960Z,4.70
2022-10-07T06:26:05.041Z,5.03
2022-10-07T06:28:54.411Z,5.20
2022-10-07T06:31:46.035Z,4.80
2022-10-07T06:34:35.606Z,5.17
2022-10-07T06:37:25.591Z,4.27
2022-10-07T06:40:14.547Z,4.60
2022-10-07T06:43:04.540Z,4.50
2022-10-07T06:46:05.402Z,4.27
2022-10-07T06:48:56.379Z,4.20
2022-10-07T06:51:46.276Z,4.60
2022-10-07T06:54:36.328Z,4.33
2022-10-07T06:57:44.817Z,4.33
2022-10-07T07:00:34.336Z,4.37
2022-10-07T07:03:24.730Z,4.07
2022-10-07T07:06:14.488Z,4.83
2022-10-07T07:09:05.114Z,4.50
2022-10-07T07:11:56.651Z,4.27
2022-10-07T07:14:53.886Z,4.20
2022-10-07T07:17:43.586Z,4.53
2022-10-07T07:20:37.046Z,4.65
2022-10-07T07:23:27.930Z,4.97
2022-10-07T07:26:17.692Z,5.30
2022-10-07T07:29:07.691Z,4.67
2022-10-07T07:32:01.691Z,4.67
2022-10-07T07:37:47.706Z,4.40
2022-10-07T07:40:39.103Z,4.80
2022-10-07T07:43:28.261Z,4.40
2022-10-07T07:46:18.499Z,4.63
2022-10-07T07:49:10.487Z,5.07
2022-10-07T07:52:01.898Z,4.23
2022-10-07T07:54:57.706Z,4.43
2022-10-07T08:00:35.127Z,4.97
2022-10-07T08:03:25.691Z,4.50
2022-10-07T08:06:17.120Z,4.60
2022-10-07T08:09:06.509Z,4.07
2022-10-07T08:11:56.906Z,4.20
2022-10-07T08:14:45.659Z,4.30
2022-10-07T08:17:34.412Z,4.20
2022-10-07T08:20:23.579Z,4.30
2022-10-07T08:23:12.129Z,4.07
2022-10-07T08:26:02.725Z,4.00
2022-10-07T08:28:52.488Z,3.93
2022-10-07T08:31:42.764Z,4.30
2022-10-07T08:34:32.270Z,4.20
2022-10-07T08:37:22.044Z,4.07
2022-10-07T08:40:17.111Z,4.17
2022-10-07T08:43:05.496Z,4.20
2022-10-07T08:46:00.645Z,3.90
2022-10-07T08:48:55.701Z,4.00
2022-10-07T08:51:49.741Z,4.00
2022-10-07T08:54:38.336Z,3.87
2022-10-07T08:57:38.503Z,4.00
2022-10-07T09:00:27.312Z,3.83
2022-10-07T09:03:35.527Z,3.83
2022-10-07T09:06:28.708Z,4.87
2022-10-07T09:09:22.371Z,3.87
2022-10-07T09:12:17.497Z,3.57
2022-10-07T09:15:19.963Z,3.95
2022-10-07T09:18:17.159Z,3.27
2022-10-07T09:21:12.890Z,3.83
2022-10-07T09:24:14.771Z,2.80
2022-10-07T09:27:12.336Z,2.90
2022-10-07T09:30:01.291Z,3.10
2022-10-07T09:32:53.854Z,2.70
2022-10-07T09:35:45.970Z,3.13
2022-10-07T09:38:37.289Z,3.17
2022-10-07T09:41:31.640Z,3.67
2022-10-07T09:44:27.482Z,3.13
2022-10-07T09:47:22.846Z,3.70
2022-10-07T09:50:33.595Z,4.20
2022-10-07T09:53:24.332Z,3.47
2022-10-07T09:56:34.960Z,3.30
2022-10-07T09:59:25.194Z,3.23
2022-10-07T10:02:22.897Z,2.80
2022-10-07T10:05:23.929Z,3.70
2022-10-07T10:08:25.034Z,3.20
2022-10-07T10:11:27.886Z,2.75
2022-10-07T10:14:41.163Z,3.10
2022-10-07T10:17:39.074Z,3.10
2022-10-07T10:20:32.958Z,3.40
2022-10-07T10:23:29.426Z,3.20
2022-10-07T10:26:34.181Z,3.17
2022-10-07T10:29:38.126Z,3.00
2022-10-07T10:32:57.537Z,2.70
2022-10-07T10:35:56.394Z,2.80
2022-10-07T10:38:51.040Z,2.90
2022-10-07T10:41:48.238Z,2.90
2022-10-07T10:44:50.715Z,2.70
2022-10-07T10:47:51.962Z,2.60
2022-10-07T10:50:53.209Z,2.70
2022-10-07T10:53:50.938Z,3.63
2022-10-07T10:56:45.680Z,2.80
2022-10-07T11:00:04.689Z,2.80
2022-10-07T11:03:19.524Z,2.93
2022-10-07T11:06:16.442Z,3.23
2022-10-07T11:09:13.126Z,2.70
2022-10-07T11:12:05.816Z,3.23
2022-10-07T11:15:02.155Z,2.77
2022-10-07T11:17:54.557Z,2.60
2022-10-07T11:20:47.778Z,2.77
2022-10-07T11:23:47.052Z,3.10
2022-10-07T11:26:41.566Z,2.60
2022-10-07T11:29:41.583Z,2.87
2022-10-07T11:32:37.623Z,2.90
2022-10-07T11:35:31.502Z,2.90
2022-10-07T11:38:25.188Z,3.63
2022-10-07T11:41:21.180Z,3.00
2022-10-07T11:44:21.714Z,2.87
2022-10-07T11:47:17.297Z,3.43
2022-10-07T11:50:13.865Z,3.60
2022-10-07T11:53:07.162Z,4.70
2022-10-07T11:56:00.374Z,4.70
2022-10-07T11:59:00.405Z,4.43
2022-10-07T12:01:52.783Z,4.53
2022-10-07T12:04:43.261Z,4.50
2022-10-07T12:07:58.625Z,5.30
2022-10-07T12:10:47.383Z,5.20
2022-10-07T12:13:40.204Z,5.70
2022-10-07T12:16:54.941Z,5.40
2022-10-07T12:19:43.341Z,5.47
2022-10-07T12:22:32.707Z,5.83
2022-10-07T12:25:41.946Z,4.90
2022-10-07T12:28:34.358Z,5.03
2022-10-07T12:31:50.892Z,4.80
2022-10-07T12:34:42.962Z,5.00
2022-10-07T12:40:41.371Z,5.33
2022-10-07T12:43:44.612Z,4.72
2022-10-07T12:46:42.045Z,5.17
2022-10-07T12:49:36.180Z,5.13
2022-10-07T12:52:39.669Z,4.20
2022-10-07T12:55:33.295Z,3.95
2022-10-07T12:59:12.465Z,3.83
2022-10-07T13:02:41.567Z,4.43
2022-10-07T13:06:00.022Z,4.13
2022-10-07T13:09:16.359Z,3.73
2022-10-07T13:12:27.024Z,3.80
2022-10-07T13:15:33.422Z,3.87
2022-10-07T13:18:26.724Z,3.73
2022-10-07T13:21:22.857Z,3.80
2022-10-07T13:24:18.091Z,4.13
2022-10-07T13:27:08.897Z,4.60
2022-10-07T13:30:00.473Z,3.53
2022-10-07T13:35:39.821Z,3.57
2022-10-07T13:38:29.923Z,4.20
2022-10-07T13:41:27.762Z,3.30
2022-10-07T13:44:20.060Z,3.50
2022-10-07T13:47:11.490Z,4.30
2022-10-07T13:50:02.094Z,3.80
2022-10-07T13:52:55.415Z,3.95
2022-10-07T13:55:45.308Z,4.37
2022-10-07T13:58:35.170Z,3.53
2022-10-07T14:01:27.063Z,3.20
2022-10-07T14:04:26.202Z,3.77
2022-10-07T14:07:20.815Z,3.50
2022-10-07T14:10:12.321Z,3.60
2022-10-07T14:13:03.471Z,3.42
2022-10-07T14:15:56.187Z,3.17
2022-10-07T14:18:45.568Z,3.40
2022-10-07T14:21:42.075Z,3.23
2022-10-07T14:24:31.821Z,3.73
2022-10-07T14:27:52.222Z,4.30
2022-10-07T14:31:00.406Z,3.60
2022-10-07T14:34:11.649Z,3.40
2022-10-07T14:37:08.051Z,3.95
2022-10-07T14:39:56.938Z,3.23
2022-10-07T14:42:45.893Z,3.87
2022-10-07T14:45:35.267Z,3.60
2022-10-07T14:48:23.408Z,4.70
2022-10-07T14:51:13.738Z,5.03
2022-10-07T14:54:06.584Z,4.07
2022-10-07T14:56:55.409Z,4.17
2022-10-07T14:59:48.450Z,3.70
2022-10-07T15:02:37.227Z,3.83
2022-10-07T15:05:26.523Z,3.60
2022-10-07T15:08:15.547Z,3.97
2022-10-07T15:11:07.071Z,4.07
2022-10-07T15:13:55.924Z,3.70
2022-10-07T15:16:44.748Z,3.93
2022-10-07T15:19:34.259Z,3.80
2022-10-07T15:22:23.628Z,3.70
2022-10-07T15:25:14.633Z,4.17
2022-10-07T15:28:03.622Z,3.33
2022-10-07T15:31:01.042Z,3.70
2022-10-07T15:33:50.117Z,3.73
2022-10-07T15:36:38.872Z,3.87
2022-10-07T15:39:29.060Z,3.43
2022-10-07T15:42:18.040Z,3.67
2022-10-07T15:45:11.710Z,3.47
2022-10-07T15:48:00.757Z,3.87
2022-10-07T15:50:50.430Z,3.90
2022-10-07T15:53:39.799Z,4.17
2022-10-07T15:56:28.084Z,4.40
2022-10-07T15:59:17.513Z,4.03
2022-10-07T16:02:10.278Z,5.10
2022-10-07T16:05:01.374Z,4.27
2022-10-07T16:07:51.561Z,4.17
2022-10-07T16:10:41.136Z,4.30
2022-10-07T16:13:30.924Z,4.30
2022-10-07T16:16:22.180Z,3.93
2022-10-07T16:19:11.905Z,4.03
2022-10-07T16:22:00.665Z,4.27
2022-10-07T16:24:49.213Z,4.27
2022-10-07T16:27:56.604Z,4.40
2022-10-07T16:30:50.556Z,4.50
2022-10-07T16:33:41.698Z,4.10
2022-10-07T16:36:30.651Z,3.90
2022-10-07T16:39:21.053Z,4.70
2022-10-07T16:42:10.417Z,4.53
2022-10-07T16:44:59.177Z,4.53
2022-10-07T16:47:48.114Z,4.73
2022-10-07T16:50:37.298Z,5.10
2022-10-07T16:53:27.071Z,4.70
2022-10-07T16:56:17.915Z,4.67
2022-10-07T16:59:08.273Z,4.83
2022-10-07T17:02:01.744Z,4.53
2022-10-07T17:04:51.925Z,4.90
2022-10-07T17:07:40.472Z,4.80
2022-10-07T17:10:29.028Z,5.23
2022-10-07T17:13:18.809Z,4.37
2022-10-07T17:16:08.413Z,4.80
2022-10-07T17:18:57.545Z,5.87
2022-10-07T17:21:47.121Z,4.80
2022-10-07T17:24:36.287Z,5.80
2022-10-07T17:27:24.833Z,5.40
2022-10-07T17:30:16.162Z,5.40
2022-10-07T17:33:05.010Z,5.13
2022-10-07T17:35:59.908Z,5.90
2022-10-07T17:38:48.459Z,6.60
2022-10-07T17:41:38.450Z,6.23
2022-10-07T17:44:27.808Z,6.30
2022-10-07T17:47:16.776Z,6.83
2022-10-07T17:50:06.509Z,6.67
2022-10-07T17:52:55.304Z,7.43
2022-10-07T17:55:52.035Z,7.07
2022-10-07T17:58:42.402Z,8.07
2022-10-07T18:01:35.256Z,8.23
2022-10-07T18:04:25.268Z,9.38
2022-10-07T18:07:15.849Z,10.03
2022-10-07T18:10:05.047Z,11.30
2022-10-07T18:13:13.661Z,12.03
2022-10-07T18:16:04.136Z,11.03
2022-10-07T18:18:56.714Z,10.93
2022-10-07T18:21:47.621Z,10.48
2022-10-07T18:24:36.667Z,10.20
2022-10-07T18:27:27.041Z,9.80
2022-10-07T18:30:16.022Z,9.93
2022-10-07T18:33:05.812Z,9.77
2022-10-07T18:36:01.644Z,9.13
2022-10-07T18:38:49.862Z,9.30
2022-10-07T18:41:38.163Z,9.73
2022-10-07T18:44:28.826Z,9.63
2022-10-07T18:47:17.767Z,9.03
2022-10-07T18:50:09.183Z,9.50
2022-10-07T18:52:59.894Z,9.93
2022-10-07T18:55:48.741Z,10.23
2022-10-07T18:58:39.750Z,9.70
2022-10-07T19:01:30.492Z,9.63
2022-10-07T19:04:19.322Z,11.10
2022-10-07T19:07:08.443Z,11.83
2022-10-07T19:09:57.232Z,11.13
2022-10-07T19:13:04.621Z,11.13
2022-10-07T19:15:53.016Z,10.40
2022-10-07T19:18:43.974Z,10.03
2022-10-07T19:21:33.875Z,10.40
2022-10-07T19:24:44.627Z,11.33
2022-10-07T19:27:33.385Z,12.60
2022-10-07T19:30:22.513Z,11.70
2022-10-07T19:33:10.887Z,12.80
2022-10-07T19:35:59.235Z,11.57
2022-10-07T19:38:51.989Z,11.67
2022-10-07T19:44:29.390Z,10.77
2022-10-07T19:47:18.563Z,11.10
2022-10-07T19:50:09.944Z,11.03
2022-10-07T19:52:59.958Z,10.77
2022-10-07T19:55:48.710Z,10.70
2022-10-07T19:58:38.693Z,10.53
2022-10-07T20:01:31.268Z,10.47
2022-10-07T20:04:21.216Z,10.83
2022-10-07T20:07:10.923Z,10.97
2022-10-07T20:10:00.086Z,10.57
2022-10-07T20:12:48.410Z,11.60
2022-10-07T20:15:37.573Z,9.97
2022-10-07T20:18:26.945Z,11.10
2022-10-07T20:21:17.952Z,10.57
2022-10-07T20:24:08.522Z,10.90
2022-10-07T20:26:57.303Z,10.83
2022-10-07T20:29:57.556Z,9.70
2022-10-07T20:32:46.473Z,10.30
2022-10-07T20:35:35.860Z,10.13
2022-10-07T20:38:24.409Z,10.53
2022-10-07T20:41:31.414Z,9.20
2022-10-07T20:44:20.701Z,9.70
2022-10-07T20:47:10.745Z,8.73
2022-10-07T20:50:01.916Z,8.80
2022-10-07T20:52:50.913Z,8.80
2022-10-07T20:55:39.463Z,8.73
2022-10-07T20:58:30.883Z,7.87
2022-10-07T21:01:19.279Z,8.10
2022-10-07T21:04:08.796Z,6.63
2022-10-07T21:06:59.403Z,6.17
2022-10-07T21:09:48.769Z,6.67
2022-10-07T21:12:39.780Z,6.10
2022-10-07T21:15:29.500Z,6.30
2022-10-07T21:18:18.531Z,6.30
2022-10-07T21:21:07.999Z,6.10
2022-10-07T21:23:56.435Z,6.27
2022-10-07T21:26:46.421Z,6.10
2022-10-07T21:29:40.185Z,4.90
2022-10-07T21:32:29.660Z,5.30
2022-10-07T21:35:19.031Z,6.57
2022-10-07T21:38:07.579Z,5.47
2022-10-07T21:40:59.746Z,5.00
2022-10-07T21:46:41.614Z,5.10
2022-10-07T21:49:31.053Z,5.03
2022-10-07T21:52:20.163Z,5.10
2022-10-07T21:55:10.756Z,5.00
2022-10-07T21:57:59.950Z,4.73
2022-10-07T22:00:48.680Z,5.03
2022-10-07T22:03:37.235Z,5.07
2022-10-07T22:06:45.880Z,4.80
2022-10-07T22:09:35.425Z,5.10
2022-10-07T22:12:24.794Z,4.90
2022-10-07T22:15:14.372Z,5.00
2022-10-07T22:18:03.851Z,4.50
2022-10-07T22:20:52.495Z,5.30
2022-10-07T22:23:41.658Z,4.60
2022-10-07T22:26:34.678Z,5.60
2022-10-07T22:29:23.262Z,4.83
2022-10-07T22:32:12.225Z,4.97
2022-10-07T22:35:19.205Z,5.10
2022-10-07T22:38:08.366Z,5.20
2022-10-07T22:40:56.920Z,5.10
2022-10-07T22:43:47.291Z,5.47
2022-10-07T22:46:36.105Z,4.60
2022-10-07T22:49:28.772Z,5.50
2022-10-07T22:52:18.900Z,4.50
2022-10-07T22:55:09.587Z,5.00
2022-10-07T22:58:01.441Z,5.20
2022-10-07T23:00:50.285Z,4.95
2022-10-07T23:03:39.547Z,4.80
2022-10-07T23:06:29.233Z,6.00
2022-10-07T23:09:17.573Z,5.43
2022-10-07T23:12:06.536Z,5.27
2022-10-07T23:14:55.285Z,4.53
2022-10-07T23:17:44.678Z,4.83
2022-10-07T23:20:33.208Z,5.40
2022-10-07T23:23:22.167Z,5.70
2022-10-07T23:26:13.157Z,5.53
2022-10-07T23:29:02.315Z,5.00
2022-10-07T23:31:51.097Z,5.43
2022-10-07T23:34:39.645Z,5.00
2022-10-07T23:37:28.810Z,5.77
2022-10-07T23:40:17.564Z,5.37
2022-10-07T23:43:06.936Z,4.90
2022-10-07T23:45:56.506Z,5.40
2022-10-07T23:48:46.697Z,5.80
2022-10-07T23:51:36.267Z,5.30
2022-10-07T23:54:25.212Z,5.57
2022-10-07T23:57:13.779Z,5.90
